METAR Data
IDs: Format: Raw Decoded Include TAF

Data at: 0340 UTC 06 Dec 2019

METAR for:KIAH (Houston/Bush Intl, TX, US)
Text:KIAH 060253Z 16005KT 10SM FEW030 BKN250 18/14 A3001 RMK AO2 SLP161 T01830139 51007
Temperature: 18.3°C ( 65°F)
Dewpoint: 13.9°C ( 57°F) [RH = 76%]
Pressure (altimeter):30.01 inches Hg (1016.3 mb) [Sea level pressure: 1016.1 mb]
Winds:from the SSE (160 degrees) at 6 MPH (5 knots; 2.6 m/s)
Visibility:10 or more sm (16+ km)
Ceiling:25000 feet AGL
Clouds: few clouds at 3000 feet AGL, broken clouds at 25000 feet AGL

METAR for:KHOU (Houston/Hobby Arpt, TX, US)
Text:KHOU 060253Z 15006KT 10SM FEW030 BKN250 19/15 A3001 RMK AO2 SLP168 T01890150 51008
Temperature: 18.9°C ( 66°F)
Dewpoint: 15.0°C ( 59°F) [RH = 78%]
Pressure (altimeter):30.01 inches Hg (1016.3 mb) [Sea level pressure: 1016.8 mb]
Winds:from the SSE (150 degrees) at 7 MPH (6 knots; 3.1 m/s)
Visibility:10 or more sm (16+ km)
Ceiling:25000 feet AGL
Clouds: few clouds at 3000 feet AGL, broken clouds at 25000 feet AGL

METAR for:KGLS (Galveston/Scholes In, TX, US)
Text:KGLS 060252Z AUTO 15006KT 10SM CLR 20/18 A3003 RMK AO2 SLP169 T02000178 51009
Temperature: 20.0°C ( 68°F)
Dewpoint: 17.8°C ( 64°F) [RH = 87%]
Pressure (altimeter):30.03 inches Hg (1017.0 mb) [Sea level pressure: 1016.9 mb]
Winds:from the SSE (150 degrees) at 7 MPH (6 knots; 3.1 m/s)
Visibility:10 or more sm (16+ km)
Ceiling:at least 12,000 feet AGL
Clouds:sky clear below 12,000 feet AGL
QC Flag:automated observation with no human augmentation

METAR for:KLVJ (Houston/Pearland Rgn, TX, US)
Text:KLVJ 060253Z AUTO 15005KT 10SM CLR 18/15 A3003 RMK AO2 SLP168 T01830150 50007
Temperature: 18.3°C ( 65°F)
Dewpoint: 15.0°C ( 59°F) [RH = 81%]
Pressure (altimeter):30.03 inches Hg (1017.0 mb) [Sea level pressure: 1016.8 mb]
Winds:from the SSE (150 degrees) at 6 MPH (5 knots; 2.6 m/s)
Visibility:10 or more sm (16+ km)
Ceiling:at least 12,000 feet AGL
Clouds:sky clear below 12,000 feet AGL
QC Flag:automated observation with no human augmentation

METAR for:KSGR (Houston/Sugar Land R, TX, US)
Text:KSGR 060331Z 16005KT 10SM SCT025 18/16 A3001 RMK AO2 T01780161
Temperature: 17.8°C ( 64°F)
Dewpoint: 16.1°C ( 61°F) [RH = 90%]
Pressure (altimeter):30.01 inches Hg (1016.3 mb)
Winds:from the SSE (160 degrees) at 6 MPH (5 knots; 2.6 m/s)
Visibility:10 or more sm (16+ km)
Ceiling:at least 12,000 feet AGL
Clouds: scattered clouds at 2500 feet AGL

METAR for:KDWH (Houston/Hooks Mem, TX, US)
Text:KDWH 060253Z 16004KT 10SM FEW026 18/14 A3001 RMK AO2 SLP160 T01830139 51009
Temperature: 18.3°C ( 65°F)
Dewpoint: 13.9°C ( 57°F) [RH = 76%]
Pressure (altimeter):30.01 inches Hg (1016.3 mb) [Sea level pressure: 1016.0 mb]
Winds:from the SSE (160 degrees) at 5 MPH (4 knots; 2.1 m/s)
Visibility:10 or more sm (16+ km)
Ceiling:at least 12,000 feet AGL
Clouds: few clouds at 2600 feet AGL

METAR for:KCLL (College Station/East, TX, US)
Text:KCLL 060253Z AUTO 17009KT 10SM CLR 20/15 A2998 RMK AO2 SLP149 T02000150 53012
Temperature: 20.0°C ( 68°F)
Dewpoint: 15.0°C ( 59°F) [RH = 73%]
Pressure (altimeter):29.98 inches Hg (1015.3 mb) [Sea level pressure: 1014.9 mb]
Winds:from the S (170 degrees) at 10 MPH (9 knots; 4.6 m/s)
Visibility:10 or more sm (16+ km)
Ceiling:at least 12,000 feet AGL
Clouds:sky clear below 12,000 feet AGL
QC Flag:automated observation with no human augmentation

METAR for:KUTS (Huntsville Muni, TX, US)
Text:KUTS 060253Z AUTO 16006KT 10SM CLR 19/14 A2999 RMK AO2 SLP151 T01890144 53010
Temperature: 18.9°C ( 66°F)
Dewpoint: 14.4°C ( 58°F) [RH = 75%]
Pressure (altimeter):29.99 inches Hg (1015.7 mb) [Sea level pressure: 1015.1 mb]
Winds:from the SSE (160 degrees) at 7 MPH (6 knots; 3.1 m/s)
Visibility:10 or more sm (16+ km)
Ceiling:at least 12,000 feet AGL
Clouds:sky clear below 12,000 feet AGL
QC Flag:automated observation with no human augmentation

METAR for:KCXO (Conroe/Executive Arp, TX, US)
Text:KCXO 060253Z AUTO 14004KT 10SM CLR 17/14 A3001 RMK AO2 SLP161 T01670144 53008
Temperature: 16.7°C ( 62°F)
Dewpoint: 14.4°C ( 58°F) [RH = 86%]
Pressure (altimeter):30.01 inches Hg (1016.3 mb) [Sea level pressure: 1016.1 mb]
Winds:from the SE (140 degrees) at 5 MPH (4 knots; 2.1 m/s)
Visibility:10 or more sm (16+ km)
Ceiling:at least 12,000 feet AGL
Clouds:sky clear below 12,000 feet AGL
QC Flag:automated observation with no human augmentation

METAR for:KLBX (Angleton/Texas Gulf, TX, US)
Text:KLBX 060253Z AUTO 16003KT 10SM CLR 17/16 A3002 RMK AO2 SLP166 T01720156 53008
Temperature: 17.2°C ( 63°F)
Dewpoint: 15.6°C ( 60°F) [RH = 90%]
Pressure (altimeter):30.02 inches Hg (1016.7 mb) [Sea level pressure: 1016.6 mb]
Winds:from the SSE (160 degrees) at 3 MPH (3 knots; 1.5 m/s)
Visibility:10 or more sm (16+ km)
Ceiling:at least 12,000 feet AGL
Clouds:sky clear below 12,000 feet AGL
QC Flag:automated observation with no human augmentation

METAR for:KPSX (Palacios Muni, TX, US)
Text:KPSX 060253Z AUTO 15008KT 10SM CLR 21/18 A3000 RMK AO2 SLP158 T02060183 51008
Temperature: 20.6°C ( 69°F)
Dewpoint: 18.3°C ( 65°F) [RH = 87%]
Pressure (altimeter):30.00 inches Hg (1016.0 mb) [Sea level pressure: 1015.8 mb]
Winds:from the SSE (150 degrees) at 9 MPH (8 knots; 4.1 m/s)
Visibility:10 or more sm (16+ km)
Ceiling:at least 12,000 feet AGL
Clouds:sky clear below 12,000 feet AGL
QC Flag:automated observation with no human augmentation